Weather History for Staunton, VA

Change the Weather History Date:

Saturday, November 26, 2011

  Actual Average Record
Temperature  
Mean Temperature 45 °F -  
Max Temperature 64 °F 53 °F 66 °F (1999)
Min Temperature 26 °F 31 °F 21 °F (2005)
Degree Days  
Heating Degree Days 20    
Moisture  
Dew Point 29 °F    
Average Humidity 62    
Maximum Humidity 87    
Minimum Humidity 22    
Precipitation  
Precipitation 0.00 in - - ()
Sea Level Pressure  
Sea Level Pressure 30.25 in    
Wind  
Wind Speed 1 mph (South)    
Max Wind Speed 6 mph    
Max Gust Speed -    
Visibility 10 miles    
Events      
Averages and records for this station are not official NWS values.
T = Trace of Precipitation, MM = Missing Value Source: NWS Daily Summary

Daily Weather History Graph

Daily Weather History Graph

Search for Another Location

Airport:

Trip Planner

Search our weather history database for the weather conditions in past years. The results will help you decide how hot, cold, wet, or windy it might be!

Date:

Astronomy

Nov. 26, 2011 Rise Set
Actual Time 7:08 AM EST 4:57 PM EST
Civil Twilight 6:39 AM EST 5:26 PM EST
Nautical Twilight 6:06 AM EST 5:58 PM EST
Astronomical Twilight 5:35 AM EST 6:30 PM EST
Moon 8:36 AM EST (11/26) 6:27 PM EST (11/26)
Length of Visible Light 10h 46m
Length of Day
9h 48m
Waxing Crescent, 3% of the Moon is Illuminated
Nov 26
Waxing Crescent
Dec 2
First Quarter
Dec 10
Full
Dec 17
Last Quarter
Dec 24
New

Hourly Weather History & Observations

Time (EST) Temp. Windchill Dew Point Humidity Pressure Visibility Wind Dir Wind Speed Gust Speed Precip Events Conditions
12:15 AM 32.0 °F - 26.6 °F 80% 30.24 in 10.0 mi Calm Calm - N/A   Clear
12:35 AM 32.0 °F - 26.6 °F 80% 30.24 in 10.0 mi Calm Calm - N/A   Clear
1:15 AM 32.0 °F - 26.6 °F 80% 30.24 in 10.0 mi Calm Calm - N/A   Clear
1:35 AM 32.0 °F - 26.6 °F 80% 30.25 in 10.0 mi Calm Calm - N/A   Clear
1:55 AM 30.2 °F - 26.6 °F 86% 30.25 in 10.0 mi Calm Calm - N/A   Clear
2:15 AM 30.2 °F - 24.8 °F 80% 30.25 in 10.0 mi Calm Calm - N/A   Clear
2:35 AM 30.2 °F - 26.6 °F 86% 30.25 in 10.0 mi Calm Calm - N/A   Clear
2:55 AM 30.2 °F - 24.8 °F 80% 30.25 in 10.0 mi Calm Calm - N/A   Clear
3:15 AM 30.2 °F - 26.6 °F 86% 30.25 in 10.0 mi Calm Calm - N/A   Clear
3:35 AM 30.2 °F - 26.6 °F 86% 30.25 in 10.0 mi Calm Calm - N/A   Clear
3:55 AM 28.4 °F - 24.8 °F 86% 30.25 in 10.0 mi Calm Calm - N/A   Clear
4:15 AM 28.4 °F - 24.8 °F 86% 30.25 in 10.0 mi Calm Calm - N/A   Clear
4:35 AM 26.6 °F - 23.0 °F 86% 30.25 in 10.0 mi Calm Calm - N/A   Clear
4:55 AM 28.4 °F - 24.8 °F 86% 30.25 in 10.0 mi Calm Calm - N/A   Clear
5:35 AM 28.4 °F - 24.8 °F 86% 30.25 in 10.0 mi Calm Calm - N/A   Clear
5:55 AM 28.4 °F - 23.0 °F 80% 30.25 in 10.0 mi Calm Calm - N/A   Clear
6:15 AM 28.4 °F - 23.0 °F 80% 30.26 in 10.0 mi Calm Calm - N/A   Clear
6:35 AM 28.4 °F - 23.0 °F 80% 30.27 in 10.0 mi Calm Calm - N/A   Clear
6:55 AM 28.4 °F - 23.0 °F 80% 30.27 in 10.0 mi Calm Calm - N/A   Clear
7:15 AM 28.4 °F - 23.0 °F 80% 30.28 in 10.0 mi Calm Calm - N/A   Clear
7:35 AM 26.6 °F - 23.0 °F 86% 30.29 in 10.0 mi Calm Calm - N/A   Clear
7:55 AM 28.4 °F - 23.0 °F 80% 30.30 in 10.0 mi Calm Calm - N/A   Clear
8:15 AM 28.4 °F - 24.8 °F 86% 30.30 in 10.0 mi Calm Calm - N/A   Clear
8:35 AM 32.0 °F - 28.4 °F 87% 30.31 in 10.0 mi Calm Calm - N/A   Clear
8:55 AM 33.8 °F - 30.2 °F 87% 30.30 in 10.0 mi Calm Calm - N/A   Clear
9:15 AM 37.4 °F - 30.2 °F 75% 30.30 in 10.0 mi Calm Calm - N/A   Clear
9:35 AM 41.0 °F - 32.0 °F 70% 30.30 in 10.0 mi Calm Calm - N/A   Clear
9:55 AM 44.6 °F - 32.0 °F 61% 30.29 in 10.0 mi Calm Calm - N/A   Clear
10:15 AM 48.2 °F - 32.0 °F 54% 30.29 in 10.0 mi Calm Calm - N/A   Clear
10:35 AM 51.8 °F - 33.8 °F 50% 30.29 in 10.0 mi SSE 4.6 mph - N/A   Clear
11:15 AM 55.4 °F - 32.0 °F 41% 30.28 in 10.0 mi Calm Calm - N/A   Clear
11:35 AM 57.2 °F - 32.0 °F 38% 30.27 in 10.0 mi Calm Calm - N/A   Clear
11:55 AM 60.8 °F - 32.0 °F 34% 30.26 in 10.0 mi Calm Calm - N/A   Clear
12:15 PM 60.8 °F - 32.0 °F 34% 30.25 in 10.0 mi Calm Calm - N/A   Clear
12:35 PM 62.6 °F - 32.0 °F 32% 30.24 in 10.0 mi Calm Calm - N/A   Clear
12:55 PM 62.6 °F - 30.2 °F 30% 30.24 in 10.0 mi Calm Calm - N/A   Clear
1:15 PM 62.6 °F - 32.0 °F 32% 30.23 in 10.0 mi Calm Calm - N/A   Clear
1:35 PM 64.4 °F - 30.2 °F 28% 30.22 in 7.0 mi East 3.5 mph - N/A   Clear
1:55 PM 64.4 °F - 24.8 °F 22% 30.21 in 10.0 mi SSE 3.5 mph - N/A   Clear
2:15 PM 62.6 °F - 26.6 °F 26% 30.22 in 10.0 mi SE 3.5 mph - N/A   Clear
2:35 PM 64.4 °F - 26.6 °F 24% 30.22 in 10.0 mi SSE 3.5 mph - N/A   Clear
2:55 PM 62.6 °F - 28.4 °F 27% 30.22 in 10.0 mi South 3.5 mph - N/A   Clear
3:15 PM 62.6 °F - 28.4 °F 27% 30.22 in 10.0 mi SSW 4.6 mph - N/A   Clear
3:35 PM 62.6 °F - 30.2 °F 30% 30.22 in 10.0 mi South 4.6 mph - N/A   Clear
3:55 PM 60.8 °F - 30.2 °F 31% 30.22 in 10.0 mi South 5.8 mph - N/A   Clear
4:15 PM 59.0 °F - 32.0 °F 36% 30.22 in 10.0 mi South 5.8 mph - N/A   Clear
4:35 PM 59.0 °F - 32.0 °F 36% 30.22 in 10.0 mi South 5.8 mph - N/A   Clear
4:55 PM 55.4 °F - 32.0 °F 41% 30.21 in 10.0 mi South 4.6 mph - N/A   Clear
5:15 PM 53.6 °F - 32.0 °F 44% 30.21 in 10.0 mi SSW 5.8 mph - N/A   Clear
5:35 PM 51.8 °F - 32.0 °F 47% 30.21 in 10.0 mi Calm Calm - N/A   Clear
5:55 PM 50.0 °F - 32.0 °F 50% 30.21 in 10.0 mi Calm Calm - N/A   Clear
6:35 PM 44.6 °F - 33.8 °F 66% 30.22 in 10.0 mi Calm Calm - N/A   Clear
7:15 PM 44.6 °F - 33.8 °F 66% 30.22 in 10.0 mi Calm Calm - N/A   Clear
7:35 PM 44.6 °F - 32.0 °F 61% 30.22 in 10.0 mi Calm Calm - N/A   Clear
7:55 PM 41.0 °F 39.0 °F 32.0 °F 70% 30.22 in 10.0 mi SW 3.5 mph - N/A   Clear
8:15 PM 44.6 °F 43.1 °F 32.0 °F 61% 30.21 in 10.0 mi South 3.5 mph - N/A   Clear
8:35 PM 41.0 °F - 32.0 °F 70% 30.21 in 10.0 mi Calm Calm - N/A   Clear
9:15 PM 37.4 °F - 32.0 °F 81% 30.20 in 10.0 mi Calm Calm - N/A   Clear
9:35 PM 37.4 °F - 32.0 °F 81% 30.20 in 10.0 mi Calm Calm - N/A   Clear
9:55 PM 39.2 °F - 32.0 °F 75% 30.20 in 10.0 mi Calm Calm - N/A   Clear
10:15 PM 37.4 °F - 32.0 °F 81% 30.19 in 10.0 mi Calm Calm - N/A   Clear
11:15 PM 35.6 °F - 32.0 °F 87% 30.19 in 10.0 mi Calm Calm - N/A   Clear
11:35 PM 35.6 °F 32.8 °F 32.0 °F 87% 30.19 in 10.0 mi SW 3.5 mph - N/A   Clear
11:55 PM 37.4 °F - 32.0 °F 81% 30.18 in 10.0 mi Calm Calm - N/A   Clear